Airfield :
LOGIN :

Register | Disclaimer

   EN    FR    IT 

 










Legend :    VFR   Marginal VFR   IFR   Intensive IFR   Very Intensive IFR
Visi :
Ceiling :
>= 8 km
>= 3000ft
5 to 8 km
1000 to 3000 ft
1500m to 5 km
500 to 1000 ft
800 to 1500m
200 to 500 ft
< 800m
< 200 ft
Symbols :   Thunderstorms  Fog  Heavy snow  Heavy precipitations  Wind > 20 kt
SIGMETs :     Misc.  Thunderstorms  Icing  Turbulence  Mountain Waves  Volcanic Ashes






- Airport Elevation : 529 ft
- IATA code : CHR


LFLX - Chateauroux

CURRENT METAR :
  • 172130Z AUTO 06005KT 7000 FEW004 02/02 Q1037 TEMPO 3000 BR BKN003

EXPIRED METARs :
  • 172100Z AUTO 10003KT 8000 BKN004 OVC014 03/03 Q1037 TEMPO 3000 BR
  • 172030Z AUTO 07005KT 9000 SCT005 OVC015 04/04 Q1037 TEMPO 3000 BR BKN003
  • 172000Z AUTO 07006KT 7000 BKN007 OVC017 04/04 Q1037 TEMPO 3000 BR BKN003
  • 171930Z AUTO 07005KT 7000 BKN011 OVC017 04/04 Q1037 TEMPO 3000 BR BKN003
  • 171900Z AUTO 07005KT 7000 BKN006 OVC012 04/04 Q1037 TEMPO 3000 BR BKN003

TAF TAF LFLX
Valid from the 17 at 18:00 until the 19 at 00:00 UTC


171700Z 1718/1824 07006KT 8000 BKN005 BKN010
TEMPO 1718/1809 3000 BR BKN003
PROB30
TEMPO 1800/1807 1200 BR BKN002
BECMG 1809/1812 BKN012
TEMPO 1814/1818 BKN016
TEMPO 1821/1824 3000 BR BKN004



MET'MAP, your aeronautical weather chart ! - Copyright ORBIFLY December 2007 - Disclaimer

ORBIFLY MET'MAP TEAM :

Programming & Development : Alexandra Zaïnal
Concept & original design : Baudouin d'Aumeries
Assistance for programming : Marc-Olivier Méhu
Technical & hardware support : Manuel Goepfert

Contact : metmap@orbifly.com




SOURCES & CREDITS :

   NOAA